createdAt,value
2019-01-21T00:00:34.151Z,40.10
2019-01-21T00:02:09.279Z,45.80
2019-01-21T00:03:44.074Z,43.65
2019-01-21T00:05:19.128Z,44.15
2019-01-21T00:06:53.990Z,39.78
2019-01-21T00:08:29.223Z,43.83
2019-01-21T00:10:04.698Z,45.63
2019-01-21T00:11:39.584Z,43.55
2019-01-21T00:13:15.018Z,41.20
2019-01-21T00:14:50.148Z,41.77
2019-01-21T00:16:24.960Z,43.00
2019-01-21T00:18:00.247Z,46.48
2019-01-21T00:19:35.133Z,45.05
2019-01-21T00:21:09.933Z,40.05
2019-01-21T00:22:45.090Z,43.25
2019-01-21T00:24:21.559Z,45.98
2019-01-21T00:25:56.682Z,43.80
2019-01-21T00:27:31.765Z,47.53
2019-01-21T00:29:06.590Z,46.18
2019-01-21T00:30:41.947Z,42.10
2019-01-21T00:32:16.733Z,43.85
2019-01-21T00:33:51.811Z,39.67
2019-01-21T00:35:26.696Z,42.08
2019-01-21T00:37:03.443Z,36.28
2019-01-21T00:38:38.617Z,42.35
2019-01-21T00:40:14.199Z,40.15
2019-01-21T00:41:49.015Z,42.13
2019-01-21T00:43:24.103Z,39.45
2019-01-21T00:44:58.965Z,41.92
2019-01-21T00:46:34.089Z,39.03
2019-01-21T00:48:09.320Z,35.88
2019-01-21T00:49:44.471Z,35.25
2019-01-21T00:51:19.584Z,40.30
2019-01-21T00:52:54.384Z,38.50
2019-01-21T00:54:29.164Z,37.38
2019-01-21T00:56:04.062Z,41.25
2019-01-21T00:57:39.031Z,39.73
2019-01-21T00:59:13.846Z,38.42
2019-01-21T01:00:49.035Z,39.48
2019-01-21T01:02:23.935Z,36.53
2019-01-21T01:03:59.292Z,36.83
2019-01-21T01:05:34.178Z,37.98
2019-01-21T01:07:09.655Z,40.80
2019-01-21T01:08:44.445Z,41.33
2019-01-21T01:10:19.486Z,39.30
2019-01-21T01:11:54.284Z,38.90
2019-01-21T01:13:29.347Z,36.03
2019-01-21T01:15:05.011Z,37.70
2019-01-21T01:16:40.128Z,36.53
2019-01-21T01:18:14.925Z,39.42
2019-01-21T01:19:49.781Z,35.68
2019-01-21T01:21:24.912Z,33.15
2019-01-21T01:22:59.967Z,37.48
2019-01-21T01:24:34.779Z,39.48
2019-01-21T01:26:09.889Z,33.15
2019-01-21T01:27:44.865Z,38.98
2019-01-21T01:29:19.669Z,38.13
2019-01-21T01:30:54.715Z,38.65
2019-01-21T01:32:29.522Z,41.08
2019-01-21T01:34:04.827Z,42.20
2019-01-21T01:35:39.951Z,36.08
2019-01-21T01:37:14.771Z,40.50
2019-01-21T01:38:49.584Z,39.15
2019-01-21T01:40:24.468Z,41.77
2019-01-21T01:41:59.285Z,39.18
2019-01-21T01:43:34.710Z,40.12
2019-01-21T01:45:12.066Z,41.68
2019-01-21T01:46:47.403Z,43.33
2019-01-21T01:48:22.206Z,37.80
2019-01-21T01:49:57.011Z,39.73
2019-01-21T01:51:32.233Z,40.78
2019-01-21T01:53:07.193Z,41.77
2019-01-21T01:54:42.484Z,35.40
2019-01-21T01:56:17.675Z,36.23
2019-01-21T01:57:55.438Z,37.60
2019-01-21T01:59:30.235Z,33.02
2019-01-21T02:01:05.478Z,38.35
2019-01-21T02:02:40.580Z,37.50
2019-01-21T02:04:15.707Z,33.90
2019-01-21T02:05:50.635Z,34.88
2019-01-21T02:07:25.434Z,35.50
2019-01-21T02:09:00.337Z,36.38
2019-01-21T02:10:35.692Z,34.48
2019-01-21T02:12:10.920Z,34.70
2019-01-21T02:13:46.095Z,37.73
2019-01-21T02:15:21.146Z,35.63
2019-01-21T02:16:56.208Z,39.20
2019-01-21T02:18:31.007Z,39.50
2019-01-21T02:20:09.369Z,33.55
2019-01-21T02:21:44.998Z,39.38
2019-01-21T02:23:22.172Z,41.85
2019-01-21T02:25:01.042Z,38.63
2019-01-21T02:26:51.214Z,34.98
2019-01-21T02:28:56.314Z,35.35
2019-01-21T02:31:17.141Z,35.98
2019-01-21T02:33:41.720Z,36.60
2019-01-21T02:35:47.437Z,36.88
2019-01-21T02:37:46.871Z,34.50
2019-01-21T02:40:11.463Z,34.00
2019-01-21T02:42:34.131Z,38.05
2019-01-21T02:44:43.361Z,38.10
2019-01-21T02:46:44.388Z,38.05
2019-01-21T02:49:10.958Z,38.80
2019-01-21T02:51:24.220Z,35.88
2019-01-21T02:53:34.649Z,37.50
2019-01-21T02:55:32.323Z,38.38
2019-01-21T02:58:10.850Z,36.10
2019-01-21T03:00:36.011Z,35.90
2019-01-21T03:02:48.436Z,33.70
2019-01-21T03:05:19.071Z,36.08
2019-01-21T03:07:42.958Z,34.75
2019-01-21T03:09:55.150Z,31.93
2019-01-21T03:12:00.942Z,35.60
2019-01-21T03:14:10.789Z,37.40
2019-01-21T03:16:42.076Z,34.98
2019-01-21T03:19:01.128Z,35.20
2019-01-21T03:21:29.271Z,33.18
2019-01-21T03:23:46.681Z,30.82
2019-01-21T03:26:04.776Z,31.12
2019-01-21T03:28:54.894Z,34.95
2019-01-21T03:31:12.279Z,30.97
2019-01-21T03:33:37.128Z,33.83
2019-01-21T03:36:05.055Z,35.73
2019-01-21T03:38:34.901Z,36.17
2019-01-21T03:40:29.678Z,36.00
2019-01-21T03:42:25.124Z,30.60
2019-01-21T03:45:12.199Z,33.10
2019-01-21T03:47:32.228Z,36.03
2019-01-21T03:49:30.506Z,35.17
2019-01-21T03:52:17.379Z,33.85
2019-01-21T03:54:06.729Z,32.53
2019-01-21T03:55:42.115Z,31.87
2019-01-21T03:58:11.507Z,30.90
2019-01-21T04:00:43.553Z,34.67
2019-01-21T04:02:48.186Z,29.35
2019-01-21T04:05:12.666Z,30.12
2019-01-21T04:07:08.855Z,30.45
2019-01-21T04:09:39.995Z,33.83
2019-01-21T04:11:49.485Z,33.20
2019-01-21T04:14:23.361Z,32.38
2019-01-21T04:17:06.061Z,30.27
2019-01-21T04:19:31.053Z,32.25
2019-01-21T04:22:16.484Z,30.77
2019-01-21T04:24:53.963Z,29.50
2019-01-21T04:27:22.530Z,30.65
2019-01-21T04:29:45.579Z,34.98
2019-01-21T04:32:05.962Z,35.28
2019-01-21T04:34:41.345Z,33.33
2019-01-21T04:36:59.456Z,33.45
2019-01-21T04:39:07.534Z,33.98
2019-01-21T04:41:28.047Z,32.93
2019-01-21T04:44:17.192Z,29.63
2019-01-21T04:46:56.174Z,33.35
2019-01-21T04:49:14.566Z,32.55
2019-01-21T04:51:47.858Z,31.45
2019-01-21T04:53:59.801Z,32.45
2019-01-21T04:56:18.979Z,32.93
2019-01-21T04:58:48.480Z,31.95
2019-01-21T05:01:05.155Z,35.95
2019-01-21T05:03:41.841Z,30.15
2019-01-21T05:06:04.665Z,29.82
2019-01-21T05:08:37.551Z,32.28
2019-01-21T05:10:45.529Z,31.35
2019-01-21T05:13:12.623Z,34.10
2019-01-21T05:15:58.870Z,33.67
2019-01-21T05:18:48.449Z,35.30
2019-01-21T05:21:11.873Z,31.95
2019-01-21T05:23:34.354Z,31.02
2019-01-21T05:25:54.761Z,30.65
2019-01-21T05:28:47.398Z,33.40
2019-01-21T05:30:59.315Z,30.80
2019-01-21T05:33:31.342Z,38.30
2019-01-21T05:35:59.006Z,34.03
2019-01-21T05:38:36.489Z,35.08
2019-01-21T05:41:18.003Z,35.60
2019-01-21T05:43:54.116Z,33.42
2019-01-21T05:46:03.214Z,30.17
2019-01-21T05:48:48.896Z,33.65
2019-01-21T05:51:18.640Z,34.83
2019-01-21T05:53:38.030Z,36.80
2019-01-21T05:56:21.928Z,39.20
2019-01-21T05:58:36.433Z,32.95
2019-01-21T06:00:49.390Z,36.15
2019-01-21T06:03:41.184Z,35.58
2019-01-21T06:06:03.897Z,35.70
2019-01-21T06:09:00.319Z,36.25
2019-01-21T06:11:11.668Z,36.28
2019-01-21T06:13:32.757Z,32.80
2019-01-21T06:16:00.430Z,33.35
2019-01-21T06:18:34.630Z,35.92
2019-01-21T06:20:55.044Z,33.08
2019-01-21T06:23:46.126Z,37.58
2019-01-21T06:26:08.670Z,31.97
2019-01-21T06:28:28.452Z,30.82
2019-01-21T06:30:37.886Z,33.83
2019-01-21T06:33:02.373Z,32.17
2019-01-21T06:35:40.511Z,35.28
2019-01-21T06:37:58.076Z,33.48
2019-01-21T06:40:35.732Z,35.05
2019-01-21T06:43:21.514Z,33.63
2019-01-21T06:45:28.365Z,34.03
2019-01-21T06:47:43.359Z,37.55
2019-01-21T06:49:40.351Z,34.78
2019-01-21T06:51:54.365Z,35.40
2019-01-21T06:54:43.258Z,33.90
2019-01-21T06:57:07.905Z,29.37
2019-01-21T06:59:20.238Z,35.73
2019-01-21T07:01:45.585Z,31.65
2019-01-21T07:04:12.140Z,33.13
2019-01-21T07:06:42.150Z,33.10
2019-01-21T07:09:18.811Z,35.38
2019-01-21T07:11:47.672Z,36.45
2019-01-21T07:13:53.670Z,33.08
2019-01-21T07:15:57.781Z,37.42
2019-01-21T07:18:17.198Z,35.92
2019-01-21T07:20:32.518Z,39.88
2019-01-21T07:23:35.216Z,38.40
2019-01-21T07:26:09.693Z,41.18
2019-01-21T07:28:45.258Z,34.63
2019-01-21T07:31:22.547Z,40.50
2019-01-21T07:33:55.747Z,36.65
2019-01-21T07:36:12.978Z,35.63
2019-01-21T07:38:15.958Z,34.53
2019-01-21T07:40:50.596Z,35.40
2019-01-21T07:43:15.759Z,39.78
2019-01-21T07:45:34.081Z,43.92
2019-01-21T07:47:37.430Z,52.78
2019-01-21T07:50:00.097Z,42.62
2019-01-21T07:52:31.070Z,44.27
2019-01-21T07:54:43.206Z,48.00
2019-01-21T07:57:08.555Z,46.90
2019-01-21T07:59:24.361Z,47.88
2019-01-21T08:01:46.721Z,55.80
2019-01-21T08:04:36.678Z,75.05
2019-01-21T08:07:09.364Z,54.65
2019-01-21T08:09:29.390Z,49.00
2019-01-21T08:11:37.451Z,46.40
2019-01-21T08:13:46.679Z,49.40
2019-01-21T08:15:44.761Z,47.55
2019-01-21T08:18:14.280Z,48.05
2019-01-21T08:20:37.938Z,50.73
2019-01-21T08:23:08.273Z,63.92
2019-01-21T08:25:34.362Z,61.15
2019-01-21T08:28:03.469Z,64.77
2019-01-21T08:30:30.458Z,68.17
2019-01-21T08:32:38.999Z,71.65
2019-01-21T08:35:10.774Z,68.78
2019-01-21T08:37:19.094Z,70.65
2019-01-21T08:39:43.386Z,69.10
2019-01-21T08:41:49.187Z,69.67
2019-01-21T08:43:56.118Z,65.80
2019-01-21T08:46:26.527Z,88.15
2019-01-21T08:49:03.744Z,80.35
2019-01-21T08:51:22.619Z,73.12
2019-01-21T08:53:37.839Z,70.60
2019-01-21T08:56:01.028Z,75.37
2019-01-21T08:58:27.783Z,84.97
2019-01-21T09:00:38.829Z,76.17
2019-01-21T09:03:02.781Z,89.77
2019-01-21T09:05:14.162Z,85.55
2019-01-21T09:07:20.017Z,77.82
2019-01-21T09:09:48.593Z,80.20
2019-01-21T09:11:57.615Z,77.55
2019-01-21T09:14:02.456Z,84.07
2019-01-21T09:16:08.303Z,82.65
2019-01-21T09:18:24.624Z,78.97
2019-01-21T09:20:59.125Z,75.95
2019-01-21T09:22:47.479Z,68.37
2019-01-21T09:25:20.374Z,76.75
2019-01-21T09:27:41.875Z,68.00
2019-01-21T09:30:14.593Z,70.35
2019-01-21T09:32:41.525Z,66.10
2019-01-21T09:35:17.263Z,69.12
2019-01-21T09:38:19.646Z,66.90
2019-01-21T09:40:51.661Z,64.87
2019-01-21T09:43:24.359Z,67.50
2019-01-21T09:45:48.662Z,70.67
2019-01-21T09:47:21.976Z,71.53
2019-01-21T09:48:55.211Z,65.28
2019-01-21T09:50:30.648Z,73.35
2019-01-21T09:52:14.181Z,72.12
2019-01-21T09:53:54.482Z,76.62
2019-01-21T09:55:30.275Z,70.70
2019-01-21T09:57:08.950Z,72.97
2019-01-21T09:58:45.318Z,76.75
2019-01-21T10:00:20.715Z,68.57
2019-01-21T10:01:58.836Z,79.35
2019-01-21T10:03:34.903Z,71.22
2019-01-21T10:05:13.971Z,70.80
2019-01-21T10:07:20.877Z,69.35
2019-01-21T10:09:48.190Z,66.50
2019-01-21T10:12:08.102Z,73.40
2019-01-21T10:14:29.593Z,71.65
2019-01-21T10:16:55.831Z,75.40
2019-01-21T10:19:36.362Z,70.60
2019-01-21T10:22:05.076Z,68.65
2019-01-21T10:24:23.033Z,66.37
2019-01-21T10:26:40.521Z,63.00
2019-01-21T10:29:21.614Z,62.25
2019-01-21T10:31:59.405Z,60.48
2019-01-21T10:33:59.703Z,56.50
2019-01-21T10:36:36.182Z,63.17
2019-01-21T10:39:06.459Z,56.75
2019-01-21T10:41:05.621Z,63.08
2019-01-21T10:43:05.350Z,60.65
2019-01-21T10:45:28.371Z,60.80
2019-01-21T10:47:36.683Z,56.55
2019-01-21T10:50:29.988Z,58.68
2019-01-21T10:53:13.226Z,56.90
2019-01-21T10:55:19.871Z,51.50
2019-01-21T10:57:33.360Z,54.67
2019-01-21T10:59:25.284Z,53.28
2019-01-21T11:02:20.971Z,49.80
2019-01-21T11:04:55.242Z,52.13
2019-01-21T11:07:21.544Z,48.60
2019-01-21T11:09:45.599Z,49.25
2019-01-21T11:12:06.533Z,52.40
2019-01-21T11:14:27.950Z,51.05
2019-01-21T11:16:29.485Z,47.62
2019-01-21T11:18:30.946Z,49.42
2019-01-21T11:20:52.180Z,50.28
2019-01-21T11:22:55.276Z,47.40
2019-01-21T11:24:59.967Z,46.60
2019-01-21T11:27:21.084Z,47.62
2019-01-21T11:29:59.593Z,48.25
2019-01-21T11:32:09.392Z,52.13
2019-01-21T11:34:30.134Z,47.55
2019-01-21T11:36:21.956Z,45.25
2019-01-21T11:38:26.482Z,49.33
2019-01-21T11:40:50.150Z,43.80
2019-01-21T11:42:43.107Z,49.25
2019-01-21T11:44:56.620Z,46.92
2019-01-21T11:47:12.301Z,46.98
2019-01-21T11:49:40.890Z,47.15
2019-01-21T11:52:36.514Z,43.68
2019-01-21T11:55:03.547Z,45.67
2019-01-21T11:57:23.743Z,44.77
2019-01-21T11:59:43.164Z,42.53
2019-01-21T12:02:14.115Z,46.03
2019-01-21T12:04:40.992Z,41.47
2019-01-21T12:06:44.806Z,40.10
2019-01-21T12:08:38.213Z,42.40
2019-01-21T12:10:51.789Z,43.70
2019-01-21T12:13:04.199Z,41.47
2019-01-21T12:15:14.107Z,38.77
2019-01-21T12:17:50.512Z,40.70
2019-01-21T12:20:17.012Z,47.43
2019-01-21T12:22:32.111Z,40.63
2019-01-21T12:24:53.951Z,36.97
2019-01-21T12:27:36.990Z,43.10
2019-01-21T12:30:11.293Z,45.50
2019-01-21T12:32:32.625Z,41.53
2019-01-21T12:34:57.112Z,38.77
2019-01-21T12:37:10.129Z,40.33
2019-01-21T12:39:11.946Z,38.93
2019-01-21T12:41:25.132Z,39.70
2019-01-21T12:43:47.692Z,42.57
2019-01-21T12:46:29.704Z,39.73
2019-01-21T12:48:19.786Z,40.40
2019-01-21T12:50:47.252Z,36.37
2019-01-21T12:52:36.029Z,39.53
2019-01-21T12:55:04.159Z,38.30
2019-01-21T12:57:50.832Z,40.00
2019-01-21T13:00:35.153Z,35.20
2019-01-21T13:03:05.762Z,35.40
2019-01-21T13:05:18.060Z,37.73
2019-01-21T13:07:48.614Z,34.23
2019-01-21T13:10:12.660Z,36.60
2019-01-21T13:12:12.920Z,40.27
2019-01-21T13:14:17.261Z,36.75
2019-01-21T13:17:18.985Z,36.55
2019-01-21T13:19:58.398Z,35.80
2019-01-21T13:21:57.857Z,38.98
2019-01-21T13:24:03.247Z,36.13
2019-01-21T13:26:26.172Z,38.48
2019-01-21T13:28:40.976Z,37.75
2019-01-21T13:31:01.120Z,38.88
2019-01-21T13:33:25.557Z,40.63
2019-01-21T13:35:46.438Z,38.45
2019-01-21T13:38:08.458Z,39.42
2019-01-21T13:40:35.650Z,40.85
2019-01-21T13:42:40.776Z,35.73
2019-01-21T13:44:47.561Z,37.80
2019-01-21T13:47:33.113Z,36.33
2019-01-21T13:49:27.124Z,36.68
2019-01-21T13:51:41.348Z,38.17
2019-01-21T13:54:23.837Z,40.55
2019-01-21T13:56:31.545Z,36.48
2019-01-21T13:58:39.035Z,40.90
2019-01-21T14:00:46.035Z,36.65
2019-01-21T14:02:36.285Z,36.83
2019-01-21T14:05:12.225Z,35.15
2019-01-21T14:07:17.260Z,36.40
2019-01-21T14:09:40.311Z,34.88
2019-01-21T14:12:10.531Z,33.23
2019-01-21T14:14:14.538Z,32.80
2019-01-21T14:16:34.898Z,31.33
2019-01-21T14:18:48.966Z,31.52
2019-01-21T14:21:11.826Z,30.17
2019-01-21T14:23:15.878Z,35.08
2019-01-21T14:25:36.558Z,31.45
2019-01-21T14:27:57.019Z,30.55
2019-01-21T14:29:50.273Z,31.12
2019-01-21T14:32:41.282Z,33.48
2019-01-21T14:35:00.455Z,32.38
2019-01-21T14:37:29.634Z,38.45
2019-01-21T14:39:53.225Z,36.93
2019-01-21T14:42:15.757Z,38.28
2019-01-21T14:45:23.993Z,39.73
2019-01-21T14:47:47.432Z,36.40
2019-01-21T14:49:33.345Z,39.80
2019-01-21T14:52:18.490Z,39.45
2019-01-21T14:54:23.598Z,37.75
2019-01-21T14:56:29.584Z,37.73
2019-01-21T14:59:10.586Z,39.35
2019-01-21T15:01:23.820Z,39.45
2019-01-21T15:03:32.270Z,38.83
2019-01-21T15:06:08.574Z,36.80
2019-01-21T15:08:04.829Z,37.15
2019-01-21T15:10:36.543Z,39.98
2019-01-21T15:13:04.360Z,38.90
2019-01-21T15:15:16.033Z,39.38
2019-01-21T15:18:06.020Z,38.35
2019-01-21T15:20:57.833Z,39.92
2019-01-21T15:23:11.402Z,34.83
2019-01-21T15:25:32.802Z,37.83
2019-01-21T15:27:43.792Z,40.45
2019-01-21T15:30:05.737Z,40.00
2019-01-21T15:32:27.339Z,44.27
2019-01-21T15:34:36.691Z,43.17
2019-01-21T15:36:23.506Z,49.55
2019-01-21T15:38:44.510Z,44.27
2019-01-21T15:41:01.302Z,49.27
2019-01-21T15:43:08.426Z,53.30
2019-01-21T15:45:40.741Z,50.45
2019-01-21T15:47:45.262Z,54.05
2019-01-21T15:50:09.823Z,53.28
2019-01-21T15:52:41.344Z,54.00
2019-01-21T15:54:54.348Z,48.98
2019-01-21T15:57:32.767Z,50.58
2019-01-21T15:59:48.020Z,46.98
2019-01-21T16:02:35.248Z,39.73
2019-01-21T16:04:57.862Z,46.00
2019-01-21T16:07:23.823Z,47.50
2019-01-21T16:09:45.451Z,44.60
2019-01-21T16:11:57.890Z,46.77
2019-01-21T16:14:11.379Z,49.38
2019-01-21T16:16:19.375Z,52.30
2019-01-21T16:18:19.590Z,54.33
2019-01-21T16:20:28.106Z,56.68
2019-01-21T16:22:42.017Z,59.83
2019-01-21T16:25:11.446Z,50.20
2019-01-21T16:27:02.454Z,50.50
2019-01-21T16:29:01.445Z,49.33
2019-01-21T16:30:49.781Z,53.38
2019-01-21T16:32:47.700Z,52.48
2019-01-21T16:35:08.968Z,51.10
2019-01-21T16:36:55.261Z,50.17
2019-01-21T16:39:00.078Z,53.02
2019-01-21T16:41:47.349Z,50.25
2019-01-21T16:43:22.531Z,52.10
2019-01-21T16:44:57.964Z,60.30
2019-01-21T16:46:32.843Z,54.60
2019-01-21T16:48:07.720Z,55.20
2019-01-21T16:49:42.946Z,60.03
2019-01-21T16:51:20.451Z,57.73
2019-01-21T16:52:54.971Z,59.33
2019-01-21T16:54:30.085Z,57.43
2019-01-21T16:56:05.150Z,56.48
2019-01-21T16:57:40.090Z,61.00
2019-01-21T16:59:14.972Z,63.02
2019-01-21T17:00:49.780Z,61.95
2019-01-21T17:02:24.916Z,63.75
2019-01-21T17:04:00.045Z,62.15
2019-01-21T17:05:35.480Z,59.58
2019-01-21T17:07:10.471Z,66.28
2019-01-21T17:08:45.532Z,61.00
2019-01-21T17:10:20.326Z,63.30
2019-01-21T17:11:55.743Z,61.10
2019-01-21T17:13:30.608Z,62.53
2019-01-21T17:15:07.812Z,56.25
2019-01-21T17:16:42.692Z,63.17
2019-01-21T17:18:17.836Z,61.05
2019-01-21T17:19:52.989Z,71.37
2019-01-21T17:21:28.427Z,63.13
2019-01-21T17:23:03.659Z,60.10
2019-01-21T17:24:38.728Z,59.10
2019-01-21T17:26:13.658Z,56.10
2019-01-21T17:27:48.740Z,60.28
2019-01-21T17:29:23.791Z,63.33
2019-01-21T17:30:58.938Z,61.18
2019-01-21T17:32:34.133Z,58.60
2019-01-21T17:34:09.360Z,62.45
2019-01-21T17:35:44.494Z,64.37
2019-01-21T17:37:19.621Z,60.00
2019-01-21T17:38:54.497Z,58.98
2019-01-21T17:40:29.683Z,67.80
2019-01-21T17:42:04.604Z,63.38
2019-01-21T17:43:39.391Z,62.35
2019-01-21T17:45:18.683Z,61.15
2019-01-21T17:46:53.988Z,60.73
2019-01-21T17:48:28.918Z,55.20
2019-01-21T17:50:05.001Z,64.58
2019-01-21T17:51:40.139Z,64.95
2019-01-21T17:53:14.947Z,68.22
2019-01-21T17:54:50.154Z,66.67
2019-01-21T17:56:25.281Z,66.10
2019-01-21T17:58:00.411Z,62.20
2019-01-21T17:59:35.244Z,60.45
2019-01-21T18:01:11.304Z,66.57
2019-01-21T18:02:46.095Z,68.47
2019-01-21T18:04:20.911Z,68.20
2019-01-21T18:05:57.035Z,63.20
2019-01-21T18:07:31.968Z,73.02
2019-01-21T18:09:10.129Z,66.95
2019-01-21T18:10:45.232Z,77.75
2019-01-21T18:12:20.043Z,73.60
2019-01-21T18:13:55.196Z,81.17
2019-01-21T18:15:30.328Z,70.35
2019-01-21T18:17:05.562Z,68.78
2019-01-21T18:18:40.346Z,74.35
2019-01-21T18:20:22.152Z,79.40
2019-01-21T18:21:57.301Z,83.20
2019-01-21T18:23:32.442Z,86.67
2019-01-21T18:25:09.104Z,82.57
2019-01-21T18:26:44.288Z,83.12
2019-01-21T18:28:19.462Z,82.62
2019-01-21T18:29:54.262Z,83.75
2019-01-21T18:31:29.442Z,82.40
2019-01-21T18:33:04.757Z,78.80
2019-01-21T18:34:39.571Z,76.95
2019-01-21T18:36:15.520Z,67.95
2019-01-21T18:37:50.856Z,73.07
2019-01-21T18:39:25.988Z,78.97
2019-01-21T18:41:00.772Z,69.27
2019-01-21T18:42:35.629Z,69.92
2019-01-21T18:44:10.593Z,70.70
2019-01-21T18:45:46.511Z,72.97
2019-01-21T18:47:21.656Z,69.25
2019-01-21T18:48:56.537Z,69.30
2019-01-21T18:50:31.703Z,72.17
2019-01-21T18:52:07.049Z,64.77
2019-01-21T18:53:41.832Z,72.82
2019-01-21T18:55:16.836Z,71.30
2019-01-21T18:56:51.625Z,72.40
2019-01-21T18:58:26.434Z,68.00
2019-01-21T19:00:01.299Z,67.30
2019-01-21T19:01:36.483Z,69.30
2019-01-21T19:03:11.642Z,67.40
2019-01-21T19:04:46.699Z,72.15
2019-01-21T19:06:21.882Z,69.22
2019-01-21T19:07:56.662Z,64.70
2019-01-21T19:09:31.693Z,67.25
2019-01-21T19:11:06.860Z,69.97
2019-01-21T19:12:41.964Z,66.33
2019-01-21T19:14:17.118Z,66.97
2019-01-21T19:15:51.995Z,63.02
2019-01-21T19:17:26.819Z,62.67
2019-01-21T19:19:02.131Z,64.32
2019-01-21T19:20:37.227Z,62.03
2019-01-21T19:22:12.092Z,62.08
2019-01-21T19:23:46.992Z,59.42
2019-01-21T19:25:22.198Z,62.93
2019-01-21T19:26:57.342Z,59.35
2019-01-21T19:28:32.149Z,60.88
2019-01-21T19:30:11.683Z,65.15
2019-01-21T19:31:46.824Z,62.48
2019-01-21T19:33:21.622Z,59.45
2019-01-21T19:34:56.415Z,72.15
2019-01-21T19:36:31.334Z,78.90
2019-01-21T19:38:06.531Z,67.17
2019-01-21T19:39:41.661Z,61.58
2019-01-21T19:41:16.578Z,65.72
2019-01-21T19:42:51.822Z,66.65
2019-01-21T19:44:26.622Z,65.32
2019-01-21T19:46:01.408Z,65.78
2019-01-21T19:47:36.491Z,65.75
2019-01-21T19:49:11.651Z,72.90
2019-01-21T19:50:46.434Z,69.77
2019-01-21T19:52:21.636Z,67.72
2019-01-21T19:53:56.437Z,77.00
2019-01-21T19:55:36.460Z,68.05
2019-01-21T19:57:11.260Z,71.82
2019-01-21T19:58:46.402Z,76.65
2019-01-21T20:00:22.254Z,79.50
2019-01-21T20:01:57.374Z,89.95
2019-01-21T20:03:32.499Z,90.95
2019-01-21T20:05:08.800Z,84.03
2019-01-21T20:06:44.036Z,79.58
2019-01-21T20:08:19.119Z,83.12
2019-01-21T20:09:54.255Z,77.70
2019-01-21T20:11:34.707Z,76.90
2019-01-21T20:13:06.084Z,71.90
2019-01-21T20:14:40.960Z,74.58
2019-01-21T20:16:15.765Z,69.85
2019-01-21T20:17:51.144Z,74.42
2019-01-21T20:19:26.237Z,78.20
2019-01-21T20:21:01.398Z,66.75
2019-01-21T20:22:36.530Z,71.12
2019-01-21T20:24:11.665Z,67.27
2019-01-21T20:25:46.447Z,61.35
2019-01-21T20:27:21.592Z,65.20
2019-01-21T20:28:56.751Z,64.87
2019-01-21T20:30:31.869Z,62.05
2019-01-21T20:32:08.288Z,59.85
2019-01-21T20:33:43.570Z,58.63
2019-01-21T20:35:18.599Z,60.10
2019-01-21T20:36:53.727Z,56.80
2019-01-21T20:38:28.551Z,54.60
2019-01-21T20:40:05.008Z,57.85
2019-01-21T20:41:40.157Z,60.70
2019-01-21T20:43:15.408Z,53.95
2019-01-21T20:44:50.213Z,62.83
2019-01-21T20:46:25.319Z,57.98
2019-01-21T20:48:00.107Z,62.38
2019-01-21T20:49:34.923Z,61.63
2019-01-21T20:51:10.102Z,54.03
2019-01-21T20:52:45.226Z,54.33
2019-01-21T20:54:20.034Z,54.00
2019-01-21T20:55:54.854Z,57.88
2019-01-21T20:57:30.033Z,55.90
2019-01-21T20:59:05.091Z,49.03
2019-01-21T21:00:39.868Z,55.70
2019-01-21T21:02:14.944Z,55.48
2019-01-21T21:03:50.715Z,54.05
2019-01-21T21:05:26.252Z,55.98
2019-01-21T21:07:02.016Z,53.52
2019-01-21T21:08:37.774Z,52.33
2019-01-21T21:10:13.744Z,50.33
2019-01-21T21:11:49.544Z,50.28
2019-01-21T21:13:25.053Z,48.42
2019-01-21T21:15:00.553Z,50.58
2019-01-21T21:16:36.291Z,52.15
2019-01-21T21:18:11.754Z,50.65
2019-01-21T21:19:47.596Z,51.58
2019-01-21T21:21:23.035Z,53.80
2019-01-21T21:22:58.522Z,48.20
2019-01-21T21:24:33.981Z,55.10
2019-01-21T21:26:10.139Z,59.13
2019-01-21T21:27:45.576Z,72.72
2019-01-21T21:29:21.731Z,60.65
2019-01-21T21:30:57.181Z,56.88
2019-01-21T21:32:32.658Z,54.75
2019-01-21T21:34:08.128Z,55.43
2019-01-21T21:35:43.690Z,57.15
2019-01-21T21:37:19.165Z,61.00
2019-01-21T21:38:54.985Z,57.55
2019-01-21T21:40:30.503Z,56.45
2019-01-21T21:42:07.236Z,57.27
2019-01-21T21:43:42.682Z,63.70
2019-01-21T21:45:19.518Z,63.70
2019-01-21T21:46:55.002Z,66.55
2019-01-21T21:48:31.991Z,59.23
2019-01-21T21:50:12.078Z,67.50
2019-01-21T21:51:47.523Z,61.88
2019-01-21T21:53:23.010Z,69.55
2019-01-21T21:54:58.976Z,72.10
2019-01-21T21:56:34.713Z,64.40
2019-01-21T21:58:10.603Z,69.32
2019-01-21T21:59:46.383Z,64.87
2019-01-21T22:01:23.978Z,68.12
2019-01-21T22:02:59.635Z,73.15
2019-01-21T22:04:35.387Z,70.50
2019-01-21T22:06:11.124Z,70.85
2019-01-21T22:07:46.891Z,71.28
2019-01-21T22:09:22.720Z,72.03
2019-01-21T22:10:58.203Z,65.50
2019-01-21T22:12:34.035Z,67.27
2019-01-21T22:14:09.851Z,62.15
2019-01-21T22:15:45.651Z,73.10
2019-01-21T22:17:21.120Z,64.70
2019-01-21T22:18:56.989Z,71.77
2019-01-21T22:20:32.732Z,68.72
2019-01-21T22:22:08.587Z,70.95
2019-01-21T22:23:44.298Z,72.87
2019-01-21T22:25:19.863Z,67.70
2019-01-21T22:26:54.694Z,72.37
2019-01-21T22:28:29.811Z,75.50
2019-01-21T22:30:07.462Z,66.35
2019-01-21T22:31:42.257Z,70.60
2019-01-21T22:33:17.152Z,77.58
2019-01-21T22:34:51.951Z,75.28
2019-01-21T22:36:27.040Z,74.82
2019-01-21T22:38:02.543Z,68.57
2019-01-21T22:39:37.682Z,75.90
2019-01-21T22:41:12.478Z,66.57
2019-01-21T22:42:47.448Z,69.90
2019-01-21T22:44:22.490Z,71.15
2019-01-21T22:45:57.923Z,64.97
2019-01-21T22:47:33.502Z,62.95
2019-01-21T22:49:08.307Z,65.70
2019-01-21T22:50:44.523Z,61.00
2019-01-21T22:52:22.042Z,59.42
2019-01-21T22:53:57.439Z,63.87
2019-01-21T22:55:35.634Z,65.75
2019-01-21T22:57:10.973Z,61.70
2019-01-21T22:58:46.920Z,56.77
2019-01-21T23:00:54.521Z,53.30
2019-01-21T23:02:30.877Z,61.98
2019-01-21T23:04:07.949Z,53.17
2019-01-21T23:05:42.823Z,60.28
2019-01-21T23:07:18.361Z,54.55
2019-01-21T23:08:53.563Z,62.08
2019-01-21T23:10:28.674Z,61.40
2019-01-21T23:12:03.845Z,57.83
2019-01-21T23:13:39.356Z,52.98
2019-01-21T23:15:15.087Z,56.02
2019-01-21T23:16:50.728Z,59.03
2019-01-21T23:18:26.285Z,58.33
2019-01-21T23:20:01.400Z,58.42
2019-01-21T23:21:36.595Z,53.02
2019-01-21T23:23:12.055Z,54.83
2019-01-21T23:24:46.860Z,57.62
2019-01-21T23:26:22.432Z,59.08
2019-01-21T23:27:57.410Z,62.83
2019-01-21T23:29:32.209Z,63.75
2019-01-21T23:31:07.317Z,58.98
2019-01-21T23:32:42.448Z,51.25
2019-01-21T23:34:17.570Z,51.20
2019-01-21T23:35:53.011Z,53.50
2019-01-21T23:37:28.206Z,51.50
2019-01-21T23:39:04.661Z,50.43
2019-01-21T23:40:39.520Z,56.58
2019-01-21T23:42:14.537Z,59.98
2019-01-21T23:43:50.060Z,54.13
2019-01-21T23:45:25.427Z,56.98
2019-01-21T23:47:00.579Z,53.78
2019-01-21T23:48:35.950Z,50.95
2019-01-21T23:50:11.678Z,53.45
2019-01-21T23:51:47.012Z,52.78
2019-01-21T23:53:21.829Z,60.10
2019-01-21T23:54:56.628Z,55.67
2019-01-21T23:56:31.720Z,60.95
2019-01-21T23:58:06.585Z,60.17
2019-01-21T23:59:42.423Z,56.08
